Flight Track Log - Related Links

Times and Time Zones

All times are in EDT time to prevent confusion due to time zone crossing. See the IRO7343 flight status page for this flight to view local times or setup timezone preferences in your user account.

Time Position Orientation Groundspeed Altitude Reporting Facility
EDT Latitude Longitude Course Direction KTS MPH feet Rate Location/Type
Tue 07:53:15 PM 44.7139 -85.5881 177° South 103 119 1,400  Level Minneapolis Center
Tue 07:54:16 PM 44.6800 -85.5856 177° South 120 138 2,300 976 Climbing Minneapolis Center
Tue 07:55:18 PM 44.6475 -85.5856 180° South 120 138 3,400 1,016 Climbing Minneapolis Center
Tue 07:56:20 PM 44.6186 -85.5831 176° South 113 130 4,400 823 Climbing Minneapolis Center
Tue 07:57:22 PM 44.5839 -85.5811 178° South 107 123 5,100 265 Climbing Minneapolis Center
Tue 07:58:36 PM 44.5439 -85.5797 179° South 122 140 5,000 -44 Descending Minneapolis Center
Tue 07:59:38 PM 44.4903 -85.5778 179° South 146 168 5,000  Level Minneapolis Center
Tue 08:00:40 PM 44.4464 -85.5756 178° South 154 177 5,000  Level Minneapolis Center
Tue 08:01:42 PM 44.4047 -85.5747 179° South 154 177 5,000  Level Minneapolis Center
Tue 08:02:56 PM 44.3628 -85.5733 179° South 152 175 5,000  Level Minneapolis Center
Tue 08:03:58 PM 44.3044 -85.5711 178° South 149 171 5,000  Level Minneapolis Center
Tue 08:05:00 PM 44.2619 -85.5708 180° South 152 175 5,000  Level Minneapolis Center
Tue 08:06:02 PM 44.2197 -85.5683 178° South 152 175 5,000  Level Minneapolis Center
Tue 08:07:04 PM 44.1769 -85.5669 179° South 153 176 5,000  Level Minneapolis Center
Tue 08:08:06 PM 44.1347 -85.5653 178° South 153 176 5,000  Level Minneapolis Center
Tue 08:09:08 PM 44.1006 -85.5653 180° South 152 175 5,000  Level Minneapolis Center
Tue 08:10:22 PM 44.0442 -85.5631 178° South 152 175 5,000  Level Minneapolis Center
Tue 08:11:24 PM 43.9944 -85.5608 178° South 151 174 5,000  Level Minneapolis Center
Tue 08:12:26 PM 43.9517 -85.5608 180° South 152 175 5,000  Level Minneapolis Center
Tue 08:13:28 PM 43.9089 -85.5589 178° South 154 177 5,000  Level Minneapolis Center
Tue 08:14:30 PM 43.8669 -85.5575 179° South 153 176 5,000  Level Minneapolis Center
Tue 08:15:32 PM 43.8244 -85.5553 178° South 153 176 5,000  Level Minneapolis Center
Tue 08:16:34 PM 43.7736 -85.5542 179° South 153 176 5,000  Level Minneapolis Center
Tue 08:17:35 PM 43.7311 -85.5539 180° South 153 176 5,000  Level Minneapolis Center
Tue 08:18:37 PM 43.6875 -85.5533 179° South 155 178 5,000  Level Minneapolis Center
Tue 08:19:39 PM 43.6431 -85.5500 177° South 159 183 5,000  Level Minneapolis Center
Tue 08:20:41 PM 43.5994 -85.5481 178° South 158 182 5,000  Level Minneapolis Center
Tue 08:21:43 PM 43.5556 -85.5472 179° South 157 181 5,000 48 Level Minneapolis Center
Tue 08:22:46 PM 43.5042 -85.5453 178° South 155 178 5,100  Climbing Minneapolis Center
Tue 08:23:48 PM 43.4611 -85.5442 179° South 155 178 5,000  Descending Minneapolis Center
Tue 08:24:50 PM 43.4189 -85.5414 177° South 153 176 5,100  Climbing Minneapolis Center
Tue 08:25:52 PM 43.3756 -85.5400 179° South 155 178 5,000 -65 Descending Minneapolis Center
Tue 08:26:23 PM 43.3478 -85.5386 178° South 160 184 5,000  Level Chicago Center
Tue 08:27:25 PM 43.3053 -85.5383 180° South 156 180 5,000  Level Chicago Center
Tue 08:28:27 PM 43.2611 -85.5350 177° South 158 182 5,000 48 Level Chicago Center
Tue 08:29:29 PM 43.2181 -85.5339 179° South 156 180 5,100  Climbing Chicago Center
Tue 08:30:31 PM 43.1750 -85.5325 179° South 154 177 5,000 -145 Descending Chicago Center
Tue 08:31:33 PM 43.1225 -85.5311 179° South 156 180 4,800 -240 Descending Chicago Center
Tue 08:32:36 PM 43.0758 -85.5336 182° South 163 188 4,500 -480 Descending Chicago Center
Tue 08:33:38 PM 43.0278 -85.5344 181° South 168 193 3,800 -726 Descending Chicago Center
Tue 08:34:40 PM 42.9786 -85.5319 178° South 172 198 3,000 -919 Descending Chicago Center
Tue 08:35:42 PM 42.9300 -85.5269 176° South 174 200 1,900 -1,016 Descending Chicago Center
Tue 08:36:44 PM 42.8897 -85.5194 172° South 161 185 900 -968 Descending Chicago Center

Login

Don't have an account? Register now (free) for customized features, flight alerts, and more!